Time;durP1;ratioP1;P1;durP2;ratioP2;P2;SDS_P1;SDS_P2;PMS_P1;PMS_P2;Temp;Humidity;BMP_temperature;BMP_pressure;BME280_temperature;BME280_humidity;BME280_pressure;Samples;Min_cycle;Max_cycle;Signal;HPM_P1;HPM_P2
2021/03/11 00:00:44;;;;;;;1999.90;999.90;;;8.50;99.90;;;;;;5031878;28;20426;-67
2021/03/11 00:03:10;;;;;;;1999.90;999.90;;;8.50;99.90;;;;;;5031775;28;20417;-68
2021/03/11 00:05:38;;;;;;;1999.90;999.90;;;8.60;99.90;;;;;;5031433;28;20916;-67
2021/03/11 00:08:04;;;;;;;1999.90;999.90;;;8.60;99.90;;;;;;5031542;28;20454;-67
2021/03/11 00:10:30;;;;;;;1999.90;999.90;;;8.60;99.90;;;;;;5031697;28;20422;-67
2021/03/11 00:12:56;;;;;;;1999.90;999.90;;;8.60;99.90;;;;;;5031777;28;20414;-67
2021/03/11 00:15:23;;;;;;;1999.90;999.90;;;8.60;99.90;;;;;;5031419;28;20401;-67
2021/03/11 00:17:49;;;;;;;1999.90;999.90;;;8.70;99.90;;;;;;5031631;28;20506;-67
2021/03/11 00:20:24;;;;;;;1999.90;999.90;;;8.70;99.90;;;;;;5031539;28;20879;-67
2021/03/11 00:22:50;;;;;;;1999.90;999.90;;;8.70;99.90;;;;;;5031675;28;20403;-67
2021/03/11 00:25:18;;;;;;;1999.90;999.90;;;8.70;99.90;;;;;;5031411;28;20403;-67
2021/03/11 00:27:44;;;;;;;1999.90;999.90;;;8.80;99.90;;;;;;5031461;28;20509;-67
2021/03/11 00:30:12;;;;;;;1999.90;999.90;;;8.80;99.90;;;;;;5031553;28;21174;-67
2021/03/11 00:32:38;;;;;;;1999.90;999.90;;;8.70;99.90;;;;;;5031411;28;20407;-67
2021/03/11 00:35:06;;;;;;;1999.90;999.90;;;8.80;99.90;;;;;;5031269;28;20897;-67
2021/03/11 00:37:32;;;;;;;1999.90;999.90;;;8.80;99.90;;;;;;5030172;28;20900;-67
2021/03/11 00:39:57;;;;;;;1999.90;999.90;;;8.80;99.90;;;;;;5031422;28;20530;-67
2021/03/11 00:42:23;;;;;;;1999.90;999.90;;;8.80;99.90;;;;;;5031460;28;20176;-67
2021/03/11 00:44:49;;;;;;;1999.90;999.90;;;8.70;99.90;;;;;;5031143;28;20685;-67
2021/03/11 00:47:15;;;;;;;1999.90;999.90;;;8.80;99.90;;;;;;5031176;28;20208;-67
2021/03/11 00:49:41;;;;;;;1999.90;999.90;;;8.70;99.90;;;;;;5031314;28;20181;-67
2021/03/11 00:52:07;;;;;;;1999.90;999.90;;;8.70;99.90;;;;;;5031447;28;20487;-67
2021/03/11 00:54:33;;;;;;;1999.90;999.90;;;8.80;99.90;;;;;;5031372;28;20421;-67
2021/03/11 00:56:58;;;;;;;1999.90;999.90;;;8.80;99.90;;;;;;5034384;28;20157;-67
2021/03/11 00:59:24;;;;;;;1999.90;999.90;;;8.80;99.90;;;;;;5034859;28;20271;-67
2021/03/11 01:01:49;;;;;;;1999.90;999.90;;;8.80;99.90;;;;;;5034678;28;20249;-67
2021/03/11 01:04:15;;;;;;;1999.90;999.90;;;8.80;99.90;;;;;;5034819;28;20173;-67
2021/03/11 01:06:41;;;;;;;1999.90;999.90;;;8.80;99.90;;;;;;5034525;28;20245;-67
2021/03/11 01:09:08;;;;;;;1999.90;999.90;;;8.80;99.90;;;;;;5034434;28;20240;-67
2021/03/11 01:11:34;;;;;;;1999.90;999.90;;;8.80;99.90;;;;;;5034672;28;20475;-67
2021/03/11 01:14:00;;;;;;;1999.90;999.90;;;8.80;99.90;;;;;;5034644;28;20441;-67
2021/03/11 01:16:26;;;;;;;1999.90;999.90;;;8.80;99.90;;;;;;5034159;28;20536;-67
2021/03/11 01:18:52;;;;;;;1999.90;999.90;;;8.80;99.90;;;;;;5034416;28;20429;-68
2021/03/11 01:21:18;;;;;;;1999.90;999.90;;;8.80;99.90;;;;;;5034486;28;20196;-67
2021/03/11 01:23:44;;;;;;;1999.90;999.90;;;8.80;99.90;;;;;;5034401;28;20177;-67
2021/03/11 01:26:09;;;;;;;1999.90;999.90;;;8.80;99.90;;;;;;5034118;28;20411;-67
2021/03/11 01:28:35;;;;;;;1999.90;999.90;;;8.80;99.90;;;;;;5034210;28;20210;-67
2021/03/11 01:31:00;;;;;;;1999.90;999.90;;;8.80;99.90;;;;;;5034228;28;20220;-67
2021/03/11 01:33:26;;;;;;;1999.90;999.90;;;8.80;99.90;;;;;;5034216;28;20164;-67
2021/03/11 01:35:51;;;;;;;1999.90;999.90;;;8.80;99.90;;;;;;5034110;28;20173;-67
2021/03/11 01:38:17;;;;;;;1999.90;999.90;;;8.80;99.90;;;;;;5034076;28;20188;-67
2021/03/11 01:40:43;;;;;;;1999.90;999.90;;;8.80;99.90;;;;;;5034114;28;20169;-67
2021/03/11 01:43:08;;;;;;;1999.90;999.90;;;8.80;99.90;;;;;;5034140;28;20166;-67
2021/03/11 01:45:34;;;;;;;1999.90;999.90;;;8.80;99.90;;;;;;5033638;28;20192;-67
2021/03/11 01:48:00;;;;;;;1999.90;999.90;;;8.80;99.90;;;;;;5033814;28;20208;-67
2021/03/11 01:50:25;;;;;;;1999.90;999.90;;;8.80;99.90;;;;;;5034008;28;20223;-67
2021/03/11 01:52:51;;;;;;;1999.90;999.90;;;8.90;99.90;;;;;;5033888;28;20667;-67
2021/03/11 01:55:18;;;;;;;1999.90;999.90;;;8.90;99.90;;;;;;5033592;28;20188;-67
2021/03/11 01:57:46;;;;;;;1999.90;999.90;;;8.90;99.90;;;;;;5033775;28;20219;-67
2021/03/11 02:00:12;;;;;;;1999.90;999.90;;;8.90;99.90;;;;;;5033588;28;20432;-68
2021/03/11 02:02:45;;;;;;;1999.90;999.90;;;8.90;99.90;;;;;;5033783;28;20403;-67
2021/03/11 02:05:15;;;;;;;1999.90;999.90;;;8.90;99.90;;;;;;5033579;28;20438;-67
2021/03/11 02:07:42;;;;;;;1999.90;999.90;;;8.90;99.90;;;;;;5032430;28;20443;-67
2021/03/11 02:10:09;;;;;;;1999.90;999.90;;;8.90;99.90;;;;;;5033551;28;20440;-67
2021/03/11 02:13:02;;;;;;;1999.90;999.90;;;8.90;99.90;;;;;;5033382;28;20454;-67
2021/03/11 02:15:42;;;;;;;1999.90;999.90;;;8.90;99.90;;;;;;5033180;28;20406;-67
2021/03/11 02:18:19;;;;;;;1999.90;999.90;;;8.90;99.90;;;;;;5033355;28;20403;-67
2021/03/11 02:20:59;;;;;;;1999.90;999.90;;;8.90;99.90;;;;;;5033360;28;20439;-67
2021/03/11 02:23:54;;;;;;;1999.90;999.90;;;8.90;99.90;;;;;;5033343;28;20415;-67
2021/03/11 02:26:41;;;;;;;1999.90;999.90;;;8.90;99.90;;;;;;5033009;28;20404;-67
2021/03/11 02:29:25;;;;;;;1999.90;999.90;;;8.80;99.90;;;;;;5033017;28;20460;-67
2021/03/11 02:31:54;;;;;;;1999.90;999.90;;;8.90;99.90;;;;;;5033172;28;20400;-67
2021/03/11 02:34:24;;;;;;;1999.90;999.90;;;8.80;99.90;;;;;;5033031;28;20486;-67
2021/03/11 02:36:53;;;;;;;1999.90;999.90;;;8.90;99.90;;;;;;5032688;28;20403;-67
2021/03/11 02:39:24;;;;;;;1999.90;999.90;;;8.90;99.90;;;;;;5032981;28;20432;-67
2021/03/11 02:41:52;;;;;;;1999.90;999.90;;;8.90;99.90;;;;;;5032917;28;20414;-67
2021/03/11 02:44:18;;;;;;;1999.90;999.90;;;8.90;99.90;;;;;;5032836;28;20496;-67
2021/03/11 02:46:44;;;;;;;1999.90;999.90;;;8.90;99.90;;;;;;5032539;28;20409;-67
2021/03/11 02:49:11;;;;;;;1999.90;999.90;;;8.90;99.90;;;;;;5032641;28;20458;-67
2021/03/11 02:51:37;;;;;;;1999.90;999.90;;;8.90;99.90;;;;;;5032840;28;20175;-67
2021/03/11 02:54:03;;;;;;;1999.90;999.90;;;8.90;99.90;;;;;;5032683;28;20403;-67
2021/03/11 02:56:29;;;;;;;1999.90;999.90;;;8.90;99.90;;;;;;5032399;28;20478;-67
2021/03/11 02:58:57;;;;;;;1999.90;999.90;;;9.00;99.90;;;;;;5032626;28;20910;-67
2021/03/11 03:01:25;;;;;;;1999.90;999.90;;;9.00;99.90;;;;;;5032630;28;20173;-67
2021/03/11 03:03:52;;;;;;;1999.90;999.90;;;9.00;99.90;;;;;;5032482;28;20444;-67
2021/03/11 03:06:19;;;;;;;1999.90;999.90;;;9.00;99.90;;;;;;5032262;28;20421;-67
2021/03/11 03:08:46;;;;;;;1999.90;999.90;;;9.00;99.90;;;;;;5032186;28;20840;-67
2021/03/11 03:11:12;;;;;;;1999.90;999.90;;;9.00;99.90;;;;;;5032392;28;20439;-68
2021/03/11 03:13:41;;;;;;;1999.90;999.90;;;9.10;99.90;;;;;;5032355;28;20397;-67
2021/03/11 03:16:07;;;;;;;1999.90;999.90;;;9.10;99.90;;;;;;5032033;28;20432;-67
2021/03/11 03:18:35;;;;;;;1999.90;999.90;;;9.10;99.90;;;;;;5031932;28;20431;-67
2021/03/11 03:21:09;;;;;;;1999.90;999.90;;;9.10;99.90;;;;;;5032274;28;20765;-67
2021/03/11 03:23:35;;;;;;;1999.90;999.90;;;9.20;99.90;;;;;;5032194;28;20762;-67
2021/03/11 03:26:01;;;;;;;1999.90;999.90;;;9.20;99.90;;;;;;5031954;28;20447;-67
2021/03/11 03:28:26;;;;;;;1999.90;999.90;;;9.20;99.90;;;;;;5031970;28;20961;-67
2021/03/11 03:30:52;;;;;;;1999.90;999.90;;;9.20;99.90;;;;;;5032130;28;20162;-67
2021/03/11 03:33:18;;;;;;;1999.90;999.90;;;9.20;99.90;;;;;;5032311;28;20728;-67
2021/03/11 03:35:44;;;;;;;1999.90;999.90;;;9.20;99.90;;;;;;5031851;28;20531;-67
2021/03/11 03:38:09;;;;;;;1999.90;999.90;;;9.20;99.90;;;;;;5031886;28;20251;-67
2021/03/11 03:40:36;;;;;;;1999.90;999.90;;;9.20;99.90;;;;;;5032075;28;20496;-67
2021/03/11 03:43:04;;;;;;;1999.90;999.90;;;9.20;99.90;;;;;;5031940;28;20265;-67
2021/03/11 03:45:33;;;;;;;1999.90;999.90;;;9.20;99.90;;;;;;5031686;28;20420;-67
2021/03/11 03:48:01;;;;;;;1999.90;999.90;;;9.20;99.90;;;;;;5031821;28;20447;-67
2021/03/11 03:50:28;;;;;;;1999.90;999.90;;;9.20;99.90;;;;;;5031922;28;20408;-67
2021/03/11 03:52:56;;;;;;;1999.90;999.90;;;9.10;99.90;;;;;;5031970;28;20415;-67
2021/03/11 03:55:23;;;;;;;1999.90;999.90;;;9.00;99.90;;;;;;5031584;28;20496;-67
2021/03/11 03:57:53;;;;;;;1999.90;999.90;;;9.00;99.90;;;;;;5031860;28;20451;-68
2021/03/11 04:00:21;;;;;;;1999.90;999.90;;;9.00;99.90;;;;;;5031854;28;20841;-67
2021/03/11 04:02:52;;;;;;;1999.90;999.90;;;9.00;99.90;;;;;;5031863;28;20411;-67
2021/03/11 04:05:19;;;;;;;1999.90;999.90;;;9.00;99.90;;;;;;5031516;28;20487;-67
2021/03/11 04:07:46;;;;;;;1999.90;999.90;;;9.10;99.90;;;;;;5031729;28;20451;-68
2021/03/11 04:10:13;;;;;;;1999.90;999.90;;;9.10;99.90;;;;;;5069020;23;20586;-71
2021/03/11 04:12:39;;;;;;;1999.90;999.90;;;9.10;99.90;;;;;;5031732;28;20450;-71
2021/03/11 04:15:06;;;;;;;1999.90;999.90;;;9.10;99.90;;;;;;5031404;28;20491;-71
2021/03/11 04:17:33;;;;;;;1999.90;999.90;;;9.20;99.90;;;;;;5031635;28;20403;-71
2021/03/11 04:20:03;;;;;;;1999.90;999.90;;;9.20;99.90;;;;;;5017560;28;20424;-71
2021/03/11 04:22:29;;;;;;;1999.90;999.90;;;9.30;99.90;;;;;;5011909;28;20504;-71
2021/03/11 04:24:56;;;;;;;1999.90;999.90;;;9.30;99.90;;;;;;5011547;28;20966;-71
2021/03/11 04:27:22;;;;;;;1999.90;999.90;;;9.40;99.90;;;;;;5011849;28;20463;-71
2021/03/11 04:29:50;;;;;;;1999.90;999.90;;;9.50;99.90;;;;;;5011957;28;20421;-71
2021/03/11 04:32:16;;;;;;;1999.90;999.90;;;9.50;99.90;;;;;;5015591;28;20897;-71
2021/03/11 04:34:41;;;;;;;1999.90;999.90;;;9.50;99.90;;;;;;5015465;28;20416;-71
2021/03/11 04:37:07;;;;;;;1999.90;999.90;;;9.50;99.90;;;;;;5015442;28;20401;-71
2021/03/11 04:39:34;;;;;;;1999.90;999.90;;;9.50;99.90;;;;;;5015495;28;20285;-71
2021/03/11 04:42:01;;;;;;;1999.90;999.90;;;9.60;99.90;;;;;;5015404;28;20410;-71
2021/03/11 04:44:27;;;;;;;1999.90;999.90;;;9.60;99.90;;;;;;5015430;28;20411;-71
2021/03/11 04:46:54;;;;;;;1999.90;999.90;;;9.60;99.90;;;;;;5015041;28;20431;-71
2021/03/11 04:49:23;;;;;;;1999.90;999.90;;;9.60;99.90;;;;;;5017107;28;20456;-71
2021/03/11 04:51:49;;;;;;;1999.90;999.90;;;9.60;99.90;;;;;;5020275;28;20465;-71
2021/03/11 04:54:15;;;;;;;1999.90;999.90;;;9.60;99.90;;;;;;5019411;28;20425;-71
2021/03/11 04:56:42;;;;;;;1999.90;999.90;;;9.60;99.90;;;;;;5020460;28;20513;-71
2021/03/11 04:59:10;;;;;;;1999.90;999.90;;;9.60;99.90;;;;;;5019427;28;20188;-70
2021/03/11 05:01:47;;;;;;;1999.90;999.90;;;9.70;99.90;;;;;;5020997;28;20433;-71
2021/03/11 05:04:13;;;;;;;1999.90;999.90;;;9.80;99.90;;;;;;5021673;28;20417;-70
2021/03/11 05:06:39;;;;;;;1999.90;999.90;;;9.80;99.90;;;;;;5019008;28;20410;-71
2021/03/11 05:09:05;;;;;;;1999.90;999.90;;;9.90;99.90;;;;;;5014758;28;20551;-71
2021/03/11 05:11:30;;;;;;;1999.90;999.90;;;9.90;99.90;;;;;;5015044;28;20619;-71
2021/03/11 05:13:56;;;;;;;1999.90;999.90;;;10.00;99.90;;;;;;5014872;28;20198;-71
2021/03/11 05:16:22;;;;;;;1999.90;999.90;;;10.00;99.90;;;;;;5014550;28;20166;-71
2021/03/11 05:18:47;;;;;;;1999.90;999.90;;;10.10;99.90;;;;;;5014877;28;20189;-71
2021/03/11 05:21:13;;;;;;;1999.90;999.90;;;10.10;99.90;;;;;;5014743;28;20179;-71
2021/03/11 05:23:39;;;;;;;1999.90;999.90;;;10.20;99.90;;;;;;5014824;28;20634;-72
2021/03/11 05:26:04;;;;;;;1999.90;999.90;;;10.30;99.90;;;;;;5018052;28;20196;-70
2021/03/11 05:28:30;;;;;;;1999.90;999.90;;;10.30;99.90;;;;;;5017689;28;20202;-70
2021/03/11 05:30:55;;;;;;;1999.90;999.90;;;10.40;99.90;;;;;;5017743;28;20259;-72
2021/03/11 05:33:21;;;;;;;1999.90;999.90;;;10.40;99.90;;;;;;5018120;28;20168;-71
2021/03/11 05:35:47;;;;;;;1999.90;999.90;;;10.40;99.90;;;;;;5017258;28;20172;-71
2021/03/11 05:38:13;;;;;;;1999.90;999.90;;;10.40;99.90;;;;;;5017509;28;20262;-70
2021/03/11 05:40:39;;;;;;;1999.90;999.90;;;10.50;99.90;;;;;;5017676;28;20192;-71
2021/03/11 05:43:06;;;;;;;1999.90;999.90;;;10.40;99.90;;;;;;5017093;28;20407;-71
2021/03/11 05:45:33;;;;;;;1999.90;999.90;;;10.40;99.90;;;;;;5016412;28;20410;-71
2021/03/11 05:47:59;;;;;;;1999.90;999.90;;;10.40;99.90;;;;;;5017261;28;20477;-71
2021/03/11 05:50:25;;;;;;;1999.90;999.90;;;10.40;99.90;;;;;;5017278;28;20435;-70
2021/03/11 05:52:52;;;;;;;1999.90;999.90;;;10.40;99.90;;;;;;5017038;28;20818;-71
2021/03/11 05:55:19;;;;;;;1999.90;999.90;;;10.40;99.90;;;;;;5016498;28;20487;-71
2021/03/11 05:57:45;;;;;;;1999.90;999.90;;;10.40;99.90;;;;;;5016636;28;20425;-71
2021/03/11 06:00:16;;;;;;;1999.90;999.90;;;10.50;99.90;;;;;;5016601;28;20433;-71
2021/03/11 06:02:44;;;;;;;1999.90;999.90;;;10.50;99.90;;;;;;5017037;28;20811;-71
2021/03/11 06:05:12;;;;;;;1999.90;999.90;;;10.50;99.90;;;;;;5016526;28;20446;-71
2021/03/11 06:07:41;;;;;;;1999.90;999.90;;;10.60;99.90;;;;;;5016227;28;20441;-71
2021/03/11 06:10:09;;;;;;;1999.90;999.90;;;10.60;99.90;;;;;;5016000;28;20438;-71
2021/03/11 06:12:36;;;;;;;1999.90;999.90;;;10.60;99.90;;;;;;5016306;28;20410;-71
2021/03/11 06:15:14;;;;;;;1999.90;999.90;;;10.70;99.90;;;;;;5016044;28;20473;-71
2021/03/11 06:17:40;;;;;;;1999.90;999.90;;;10.70;99.90;;;;;;5015974;28;20415;-71
2021/03/11 06:20:10;;;;;;;1999.90;999.90;;;10.80;99.90;;;;;;5017026;28;20434;-71
2021/03/11 06:22:37;;;;;;;1999.90;999.90;;;10.70;99.90;;;;;;5016862;28;20437;-71
2021/03/11 06:25:05;;;;;;;1999.90;999.90;;;10.80;99.90;;;;;;5016784;28;20403;-71
2021/03/11 06:27:30;;;;;;;1999.90;999.90;;;10.80;99.90;;;;;;5016571;28;20734;-71
2021/03/11 06:29:56;;;;;;;1999.90;999.90;;;10.80;99.90;;;;;;5016175;28;20435;-71
2021/03/11 06:32:23;;;;;;;1999.90;999.90;;;10.90;99.90;;;;;;5014576;28;20176;-71
2021/03/11 06:34:49;;;;;;;1999.90;999.90;;;10.90;99.90;;;;;;5013600;28;20413;-71
2021/03/11 06:37:15;;;;;;;1999.90;999.90;;;11.00;99.90;;;;;;5013377;28;20404;-72
2021/03/11 06:39:42;;;;;;;1999.90;999.90;;;11.00;99.90;;;;;;5013347;28;20669;-71
2021/03/11 06:42:09;;;;;;;1999.90;999.90;;;11.00;99.90;;;;;;5013522;28;20453;-70
2021/03/11 06:44:36;;;;;;;1999.90;999.90;;;11.10;99.90;;;;;;5013452;28;20400;-72
2021/03/11 06:47:05;;;;;;;1999.90;999.90;;;11.10;99.90;;;;;;5013127;28;20490;-72
2021/03/11 06:49:31;;;;;;;1999.90;999.90;;;11.10;99.90;;;;;;5013248;28;20439;-71
2021/03/11 06:52:13;;;;;;;1999.90;999.90;;;11.10;99.90;;;;;;5014091;28;20979;-71
2021/03/11 06:54:55;;;;;;;1999.90;999.90;;;11.10;99.90;;;;;;5012740;28;20388;-71
2021/03/11 06:57:38;;;;;;;1999.90;999.90;;;11.20;99.90;;;;;;5013093;28;20393;-71
2021/03/11 07:00:21;;;;;;;1999.90;999.90;;;11.20;99.90;;;;;;5012898;28;20859;-71
2021/03/11 07:02:51;;;;;;;1999.90;999.90;;;11.20;99.90;;;;;;5013117;28;20411;-71
2021/03/11 07:05:18;;;;;;;1999.90;999.90;;;11.20;99.90;;;;;;5012529;28;20442;-71
2021/03/11 07:07:45;;;;;;;1999.90;999.90;;;11.30;99.90;;;;;;5012764;28;20447;-71
2021/03/11 07:10:27;;;;;;;1999.90;999.90;;;11.30;99.90;;;;;;5012729;28;20534;-72
2021/03/11 07:12:57;;;;;;;1999.90;999.90;;;11.30;99.90;;;;;;5012846;28;20411;-71
2021/03/11 07:15:26;;;;;;;1999.90;999.90;;;11.30;99.90;;;;;;5012420;28;20400;-71
2021/03/11 07:17:52;;;;;;;1999.90;999.90;;;11.40;99.90;;;;;;5012620;28;20428;-71
2021/03/11 07:20:20;;;;;;;1999.90;999.90;;;11.40;99.90;;;;;;5012603;28;20916;-71
2021/03/11 07:23:14;;;;;;;1999.90;999.90;;;11.50;99.90;;;;;;5012556;28;20434;-71
2021/03/11 07:25:47;;;;;;;1999.90;999.90;;;11.50;99.90;;;;;;5010802;28;20476;-71
2021/03/11 07:28:27;;;;;;;1999.90;999.90;;;11.50;99.90;;;;;;5012423;28;20513;-72
2021/03/11 07:30:53;;;;;;;1999.90;999.90;;;11.50;99.90;;;;;;5012435;28;20411;-72
2021/03/11 07:33:21;;;;;;;1999.90;999.90;;;11.60;99.90;;;;;;5012394;28;20404;-71
2021/03/11 07:35:47;;;;;;;1999.90;999.90;;;11.70;99.90;;;;;;5012139;28;20411;-72
2021/03/11 07:38:22;;;;;;;1999.90;999.90;;;11.70;99.90;;;;;;5012504;28;20396;-71
2021/03/11 07:40:53;;;;;;;1999.90;999.90;;;11.70;99.90;;;;;;5012489;28;20454;-72
2021/03/11 07:43:20;;;;;;;1999.90;999.90;;;11.80;99.90;;;;;;5012308;28;20466;-71
2021/03/11 07:45:45;;;;;;;1999.90;999.90;;;11.80;99.90;;;;;;5012044;28;20406;-71
2021/03/11 07:48:15;;;;;;;1999.90;999.90;;;11.80;99.90;;;;;;5012167;28;20448;-71
2021/03/11 07:50:43;;;;;;;1999.90;999.90;;;11.90;99.90;;;;;;5012445;28;20200;-71
2021/03/11 07:53:10;;;;;;;1999.90;999.90;;;12.00;99.90;;;;;;5012132;28;20494;-72
2021/03/11 07:55:36;;;;;;;1999.90;999.90;;;12.10;99.90;;;;;;5011996;28;20461;-71
2021/03/11 07:58:06;;;;;;;1999.90;999.90;;;12.10;99.90;;;;;;5012229;28;20637;-72
2021/03/11 08:00:32;;;;;;;1999.90;999.90;;;12.10;99.90;;;;;;5012052;28;20431;-70
2021/03/11 08:03:07;;;;;;;1999.90;999.90;;;12.20;99.90;;;;;;5012188;28;20928;-70
2021/03/11 08:05:33;;;;;;;1999.90;999.90;;;12.20;99.90;;;;;;5013257;28;20419;-71
2021/03/11 08:08:20;;;;;;;1999.90;999.90;;;12.20;99.90;;;;;;5016060;28;20438;-71
2021/03/11 08:10:51;;;;;;;1999.90;999.90;;;12.10;99.90;;;;;;5016185;28;20889;-71
2021/03/11 08:13:30;;;;;;;1999.90;999.90;;;11.90;99.90;;;;;;5016013;28;20414;-71
2021/03/11 08:15:57;;;;;;;1999.90;999.90;;;11.80;99.90;;;;;;5015880;28;20408;-71
2021/03/11 08:18:35;;;;;;;1999.90;999.90;;;11.70;99.90;;;;;;5015935;28;20402;-72
2021/03/11 08:21:02;;;;;;;1999.90;999.90;;;11.70;99.90;;;;;;5015861;28;20457;-71
2021/03/11 08:23:35;;;;;;;1999.90;999.90;;;11.60;99.90;;;;;;5015781;28;20410;-70
2021/03/11 08:26:03;;;;;;;1999.90;999.90;;;11.70;99.90;;;;;;5015612;28;20403;-71
2021/03/11 08:28:29;;;;;;;1999.90;999.90;;;11.70;99.90;;;;;;5015655;28;20456;-72
2021/03/11 08:31:04;;;;;;;1999.90;999.90;;;11.80;99.90;;;;;;5015671;28;20403;-70
2021/03/11 08:33:29;;;;;;;1999.90;999.90;;;11.80;99.90;;;;;;5015759;28;20246;-71
2021/03/11 08:35:57;;;;;;;1999.90;999.90;;;11.90;99.90;;;;;;5015326;28;20871;-71
2021/03/11 08:38:22;;;;;;;1999.90;999.90;;;11.90;99.90;;;;;;5015504;28;20200;-71
2021/03/11 08:40:55;;;;;;;1999.90;999.90;;;12.00;99.90;;;;;;5015538;28;20486;-71
2021/03/11 08:43:41;;;;;;;1999.90;999.90;;;12.10;99.90;;;;;;5011077;28;20203;-71
2021/03/11 08:46:12;;;;;;;1999.90;999.90;;;12.10;99.90;;;;;;5014167;28;20477;-71
2021/03/11 08:48:54;;;;;;;1999.90;999.90;;;12.10;99.90;;;;;;5013864;28;20463;-71
2021/03/11 08:51:22;;;;;;;1999.90;999.90;;;12.00;99.90;;;;;;5014415;28;20403;-71
2021/03/11 08:54:05;;;;;;;1999.90;999.90;;;12.00;99.90;;;;;;5014436;28;20411;-71
2021/03/11 08:56:31;;;;;;;1999.90;999.90;;;12.00;99.90;;;;;;5013731;28;20499;-71
2021/03/11 08:59:17;;;;;;;1999.90;999.90;;;12.00;99.90;;;;;;5013902;28;20435;-71
2021/03/11 09:01:47;;;;;;;1999.90;999.90;;;12.00;99.90;;;;;;5014180;28;20913;-71
2021/03/11 09:04:22;;;;;;;1999.90;999.90;;;11.90;99.90;;;;;;5014207;28;20415;-71
2021/03/11 09:06:55;;;;;;;1999.90;999.90;;;11.90;99.90;;;;;;5013910;28;20410;-71
2021/03/11 09:09:36;;;;;;;1999.90;999.90;;;11.80;99.90;;;;;;5014315;28;20827;-73
2021/03/11 09:12:06;;;;;;;1999.90;999.90;;;11.70;99.90;;;;;;5013795;28;20407;-72
2021/03/11 09:14:33;;;;;;;1999.90;999.90;;;11.40;99.90;;;;;;5013627;28;20962;-70
2021/03/11 09:17:05;;;;;;;1999.90;999.90;;;10.40;99.90;;;;;;5012636;28;20458;-70
2021/03/11 09:19:42;;;;;;;1999.90;999.90;;;9.80;99.90;;;;;;5008703;28;20439;-70
2021/03/11 09:22:18;;;;;;;1999.90;999.90;;;9.60;99.90;;;;;;5011307;28;20422;-72
2021/03/11 09:25:17;;;;;;;1999.90;999.90;;;9.50;99.90;;;;;;5006568;28;20506;-71
2021/03/11 09:27:55;;;;;;;1999.90;999.90;;;9.50;99.90;;;;;;4980042;28;20470;-72
2021/03/11 09:30:27;;;;;;;1999.90;999.90;;;9.50;99.90;;;;;;4988936;28;20466;-72
2021/03/11 09:32:53;;;;;;;1999.90;999.90;;;9.40;99.90;;;;;;5001098;28;20424;-72
2021/03/11 09:35:20;;;;;;;1999.90;999.90;;;9.40;99.90;;;;;;5008490;28;20412;-73
2021/03/11 09:37:47;;;;;;;1999.90;999.90;;;9.40;99.90;;;;;;5007268;28;20564;-73
2021/03/11 09:40:22;;;;;;;1999.90;999.90;;;9.40;99.90;;;;;;5008284;28;20440;-73
2021/03/11 09:43:04;;;;;;;1999.90;999.90;;;9.40;99.90;;;;;;5007857;28;20408;-74
2021/03/11 09:45:35;;;;;;;1999.90;999.90;;;9.60;99.90;;;;;;5008929;28;20440;-73
2021/03/11 09:48:09;;;;;;;1999.90;999.90;;;9.80;99.90;;;;;;5008141;28;21602;-73
2021/03/11 09:50:38;;;;;;;1999.90;999.90;;;10.20;99.90;;;;;;5008447;28;20437;-73
2021/03/11 09:53:04;;;;;;;1999.90;999.90;;;10.40;99.90;;;;;;5008055;28;20911;-74
2021/03/11 09:55:30;;;;;;;1999.90;999.90;;;10.60;99.90;;;;;;5008344;28;20415;-72
2021/03/11 09:57:56;;;;;;;1999.90;999.90;;;10.90;99.90;;;;;;5008280;28;20423;-72
2021/03/11 10:00:22;;;;;;;1999.90;999.90;;;11.10;99.90;;;;;;5007993;28;20796;-72
2021/03/11 10:02:49;;;;;;;1999.90;999.90;;;11.20;99.90;;;;;;5007992;28;20426;-72
2021/03/11 10:05:15;;;;;;;1999.90;999.90;;;11.40;99.90;;;;;;5008077;28;20411;-72
2021/03/11 10:07:41;;;;;;;1999.90;999.90;;;11.50;99.90;;;;;;5008288;28;20440;-73
2021/03/11 10:10:12;;;;;;;1999.90;999.90;;;11.70;99.90;;;;;;5008902;28;20578;-73
2021/03/11 10:12:41;;;;;;;1999.90;999.90;;;11.90;99.90;;;;;;5008039;28;20451;-73
2021/03/11 10:15:09;;;;;;;1999.90;999.90;;;12.10;99.90;;;;;;5007733;28;20414;-72
2021/03/11 10:17:36;;;;;;;1999.90;999.90;;;12.30;99.90;;;;;;5008028;28;20450;-72
2021/03/11 10:20:22;;;;;;;1999.90;999.90;;;12.40;99.90;;;;;;5007722;28;20431;-72
2021/03/11 10:22:47;;;;;;;1999.90;999.90;;;12.50;99.90;;;;;;5007826;28;20995;-72
2021/03/11 10:25:15;;;;;;;1999.90;999.90;;;12.50;99.90;;;;;;5007458;28;20412;-72
2021/03/11 10:27:44;;;;;;;1999.90;999.90;;;12.60;99.90;;;;;;5006754;28;20207;-72
2021/03/11 10:30:23;;;;;;;1999.90;999.90;;;12.70;99.90;;;;;;5008462;28;20490;-71
2021/03/11 10:32:54;;;;;;;1999.90;999.90;;;12.80;99.90;;;;;;5007470;28;20416;-71
2021/03/11 10:35:31;;;;;;;1999.90;999.90;;;12.90;99.90;;;;;;5009314;28;20786;-71
2021/03/11 10:38:20;;;;;;;1999.90;999.90;;;12.90;99.90;;;;;;5009703;28;20826;-75
2021/03/11 10:40:47;;;;;;;1999.90;999.90;;;13.00;99.90;;;;;;5008621;28;20430;-74
2021/03/11 10:43:19;;;;;;;1999.90;999.90;;;13.10;99.90;;;;;;5008882;28;20415;-71
2021/03/11 10:45:45;;;;;;;1999.90;999.90;;;13.20;99.90;;;;;;5009525;28;20779;-71
2021/03/11 10:48:12;;;;;;;1999.90;999.90;;;13.20;99.90;;;;;;5011262;28;20466;-71
2021/03/11 10:50:40;;;;;;;1999.90;999.90;;;13.30;99.90;;;;;;5009115;28;20438;-70
2021/03/11 10:53:06;;;;;;;1999.90;999.90;;;13.40;99.90;;;;;;5009209;28;20420;-71
2021/03/11 10:55:34;;;;;;;1999.90;999.90;;;13.50;99.90;;;;;;5007945;28;20426;-70
2021/03/11 10:58:01;;;;;;;1999.90;999.90;;;13.60;99.90;;;;;;5008047;28;20444;-74
2021/03/11 11:00:34;;;;;;;1999.90;999.90;;;13.70;99.90;;;;;;5007567;28;20433;-74
2021/03/11 11:03:03;;;;;;;1999.90;999.90;;;13.70;99.90;;;;;;5007964;28;20491;-74
2021/03/11 11:05:30;;;;;;;1999.90;999.90;;;13.80;99.90;;;;;;5006665;28;20421;-74
2021/03/11 11:07:56;;;;;;;1999.90;999.90;;;13.90;99.90;;;;;;5007563;28;20527;-74
2021/03/11 11:10:24;;;;;;;1999.90;999.90;;;14.00;99.90;;;;;;5007243;28;20566;-74
2021/03/11 11:12:50;;;;;;;1999.90;999.90;;;14.10;99.90;;;;;;5006457;28;20442;-74
2021/03/11 11:15:17;;;;;;;1999.90;999.90;;;14.20;99.90;;;;;;5006640;28;20422;-73
2021/03/11 11:17:43;;;;;;;1999.90;999.90;;;14.30;99.90;;;;;;5007033;28;20180;-74
2021/03/11 11:20:13;;;;;;;1999.90;999.90;;;14.30;99.90;;;;;;5006997;28;21327;-73
2021/03/11 11:22:38;;;;;;;1999.90;999.90;;;14.20;99.90;;;;;;5007258;28;20416;-73
2021/03/11 11:25:05;;;;;;;1999.90;999.90;;;14.20;99.90;;;;;;5007359;28;20418;-73
2021/03/11 11:27:31;;;;;;;1999.90;999.90;;;14.20;99.90;;;;;;5007308;28;20209;-73
2021/03/11 11:29:57;;;;;;;1999.90;999.90;;;14.20;99.90;;;;;;5007313;28;20428;-73
2021/03/11 11:32:23;;;;;;;1999.90;999.90;;;14.20;99.90;;;;;;5007758;28;20870;-73
2021/03/11 11:34:51;;;;;;;1999.90;999.90;;;14.10;99.90;;;;;;5006990;28;20504;-73
2021/03/11 11:37:17;;;;;;;1999.90;999.90;;;14.10;99.90;;;;;;5007888;28;20418;-73
2021/03/11 11:39:44;;;;;;;1999.90;999.90;;;14.10;99.90;;;;;;5007428;28;20976;-73
2021/03/11 11:42:10;;;;;;;1999.90;999.90;;;14.20;99.90;;;;;;5007156;28;20471;-73
2021/03/11 11:44:36;;;;;;;1999.90;999.90;;;14.20;99.90;;;;;;5007226;28;20425;-73
2021/03/11 11:47:02;;;;;;;1999.90;999.90;;;14.50;99.90;;;;;;5007131;28;20922;-73
2021/03/11 11:49:27;;;;;;;1999.90;999.90;;;14.90;99.90;;;;;;5007393;28;20464;-73
2021/03/11 11:51:53;;;;;;;1999.90;999.90;;;15.00;99.90;;;;;;5007714;28;20173;-73
2021/03/11 11:54:19;;;;;;;1999.90;999.90;;;15.40;99.90;;;;;;5007289;28;20173;-73
2021/03/11 11:56:44;;;;;;;1999.90;999.90;;;15.50;99.90;;;;;;5006733;28;20179;-72
2021/03/11 11:59:10;;;;;;;1999.90;999.90;;;15.70;99.90;;;;;;5007791;28;20206;-71
2021/03/11 12:01:36;;;;;;;1999.90;999.90;;;15.70;99.90;;;;;;5007441;28;20236;-72
2021/03/11 12:04:01;;;;;;;1999.90;999.90;;;15.80;99.90;;;;;;5007450;28;20176;-72
2021/03/11 12:06:27;;;;;;;1999.90;999.90;;;16.10;99.90;;;;;;5007073;28;20196;-72
2021/03/11 12:08:54;;;;;;;1999.90;999.90;;;15.90;99.90;;;;;;5005798;28;20874;-71
2021/03/11 12:11:20;;;;;;;1999.90;999.90;;;15.30;99.90;;;;;;5007134;28;20438;-72